createdAt,value
2018-12-23T00:00:50.715Z,0.00
2018-12-23T00:01:50.718Z,0.00
2018-12-23T00:02:50.805Z,0.00
2018-12-23T00:03:50.878Z,0.00
2018-12-23T00:04:50.946Z,0.00
2018-12-23T00:05:50.970Z,0.00
2018-12-23T00:06:51.005Z,0.00
2018-12-23T00:07:51.144Z,0.00
2018-12-23T00:08:51.094Z,0.00
2018-12-23T00:09:51.165Z,0.00
2018-12-23T00:10:51.247Z,0.00
2018-12-23T00:11:51.272Z,0.00
2018-12-23T00:12:51.373Z,0.00
2018-12-23T00:13:51.334Z,0.00
2018-12-23T00:14:51.472Z,0.00
2018-12-23T00:15:51.451Z,0.00
2018-12-23T00:16:51.572Z,0.00
2018-12-23T00:17:51.544Z,0.00
2018-12-23T00:18:51.618Z,0.00
2018-12-23T00:19:51.696Z,0.00
2018-12-23T00:20:51.764Z,0.00
2018-12-23T00:21:51.781Z,0.00
2018-12-23T00:22:51.871Z,0.00
2018-12-23T00:23:51.945Z,0.00
2018-12-23T00:24:51.928Z,0.00
2018-12-23T00:25:51.995Z,0.00
2018-12-23T00:26:53.439Z,0.00
2018-12-23T00:27:52.145Z,0.00
2018-12-23T00:28:52.125Z,0.00
2018-12-23T00:29:52.193Z,0.00
2018-12-23T00:30:52.232Z,0.00
2018-12-23T00:31:52.353Z,0.00
2018-12-23T00:32:52.389Z,0.00
2018-12-23T00:33:52.395Z,0.00
2018-12-23T00:34:52.498Z,0.00
2018-12-23T00:35:52.567Z,0.00
2018-12-23T00:36:52.553Z,0.00
2018-12-23T00:37:52.727Z,0.00
2018-12-23T00:38:52.726Z,0.00
2018-12-23T00:39:52.753Z,0.00
2018-12-23T00:40:52.813Z,0.00
2018-12-23T00:41:52.884Z,0.00
2018-12-23T00:42:52.994Z,0.00
2018-12-23T00:43:52.926Z,0.00
2018-12-23T00:44:53.046Z,0.00
2018-12-23T00:45:53.060Z,0.00
2018-12-23T00:46:53.094Z,0.00
2018-12-23T00:47:53.253Z,0.00
2018-12-23T00:48:53.202Z,0.00
2018-12-23T00:49:53.279Z,0.00
2018-12-23T00:50:53.344Z,0.00
2018-12-23T00:51:53.386Z,0.00
2018-12-23T00:52:53.475Z,0.00
2018-12-23T00:53:53.494Z,0.00
2018-12-23T00:54:53.522Z,0.00
2018-12-23T00:55:53.585Z,0.00
2018-12-23T00:56:53.632Z,0.00
2018-12-23T00:57:53.745Z,0.00
2018-12-23T00:58:53.706Z,0.00
2018-12-23T00:59:53.776Z,0.00
2018-12-23T01:00:53.875Z,0.00
2018-12-23T01:01:53.888Z,0.00
2018-12-23T01:02:53.986Z,0.00
2018-12-23T01:03:53.968Z,0.00
2018-12-23T01:04:54.072Z,0.00
2018-12-23T01:05:54.139Z,0.00
2018-12-23T01:06:54.172Z,0.00
2018-12-23T01:07:54.289Z,0.00
2018-12-23T01:08:54.316Z,0.00
2018-12-23T01:09:54.342Z,0.00
2018-12-23T01:10:54.381Z,0.00
2018-12-23T01:11:54.416Z,0.00
2018-12-23T01:12:54.578Z,0.00
2018-12-23T01:13:54.573Z,0.00
2018-12-23T01:14:54.624Z,0.00
2018-12-23T01:15:54.640Z,0.00
2018-12-23T01:16:54.722Z,0.00
2018-12-23T01:17:54.791Z,0.00
2018-12-23T01:18:54.766Z,0.00
2018-12-23T01:19:54.809Z,0.00
2018-12-23T01:20:54.940Z,0.00
2018-12-23T01:21:54.936Z,0.00
2018-12-23T01:22:55.078Z,0.00
2018-12-23T01:23:55.079Z,0.00
2018-12-23T01:24:55.073Z,0.00
2018-12-23T01:25:55.125Z,0.00
2018-12-23T01:26:55.177Z,0.00
2018-12-23T01:27:55.230Z,0.00
2018-12-23T01:28:55.281Z,0.00
2018-12-23T01:29:55.373Z,0.00
2018-12-23T01:30:55.442Z,0.00
2018-12-23T01:31:55.474Z,0.00
2018-12-23T01:32:55.564Z,0.00
2018-12-23T01:33:55.625Z,0.00
2018-12-23T01:34:55.651Z,0.00
2018-12-23T01:35:55.656Z,0.00
2018-12-23T01:36:55.765Z,0.00
2018-12-23T01:37:55.753Z,0.00
2018-12-23T01:38:55.804Z,0.00
2018-12-23T01:39:55.859Z,0.00
2018-12-23T01:40:55.911Z,0.00
2018-12-23T01:41:55.984Z,0.00
2018-12-23T01:42:56.019Z,0.00
2018-12-23T01:43:56.068Z,0.00
2018-12-23T01:44:56.122Z,0.00
2018-12-23T01:45:56.172Z,0.00
2018-12-23T01:46:56.237Z,0.00
2018-12-23T01:47:56.279Z,0.00
2018-12-23T01:48:56.331Z,0.00
2018-12-23T01:49:56.385Z,0.00
2018-12-23T01:50:56.437Z,0.00
2018-12-23T01:51:56.489Z,0.00
2018-12-23T01:52:56.542Z,0.00
2018-12-23T01:53:56.593Z,0.00
2018-12-23T01:54:56.667Z,0.00
2018-12-23T01:55:56.699Z,0.00
2018-12-23T01:56:56.752Z,0.00
2018-12-23T01:57:56.804Z,0.00
2018-12-23T01:58:56.856Z,0.00
2018-12-23T01:59:56.909Z,0.00
2018-12-23T02:00:56.961Z,0.00
2018-12-23T02:01:57.014Z,0.00
2018-12-23T02:02:57.066Z,0.00
2018-12-23T02:03:57.120Z,0.00
2018-12-23T02:04:57.173Z,0.00
2018-12-23T02:05:57.225Z,0.00
2018-12-23T02:06:57.276Z,0.00
2018-12-23T02:07:57.334Z,0.00
2018-12-23T02:08:57.831Z,0.00
2018-12-23T02:09:57.830Z,0.00
2018-12-23T02:10:57.841Z,0.00
2018-12-23T02:11:57.537Z,0.00
2018-12-23T02:12:57.590Z,0.00
2018-12-23T02:13:57.644Z,0.00
2018-12-23T02:14:57.697Z,0.00
2018-12-23T02:15:57.749Z,0.00
2018-12-23T02:16:57.803Z,0.00
2018-12-23T02:17:57.851Z,0.00
2018-12-23T02:18:57.905Z,0.00
2018-12-23T02:19:57.962Z,0.00
2018-12-23T02:20:58.011Z,0.00
2018-12-23T02:21:58.062Z,0.00
2018-12-23T02:22:58.116Z,0.00
2018-12-23T02:23:58.167Z,0.00
2018-12-23T02:24:58.219Z,0.00
2018-12-23T02:25:58.271Z,0.00
2018-12-23T02:26:58.325Z,0.00
2018-12-23T02:27:58.378Z,0.00
2018-12-23T02:28:58.433Z,0.00
2018-12-23T02:29:58.482Z,0.00
2018-12-23T02:30:58.535Z,0.00
2018-12-23T02:31:58.587Z,0.00
2018-12-23T02:32:58.640Z,0.00
2018-12-23T02:33:58.694Z,0.00
2018-12-23T02:34:58.744Z,0.00
2018-12-23T02:35:58.797Z,0.00
2018-12-23T02:36:58.855Z,0.00
2018-12-23T02:37:58.901Z,0.00
2018-12-23T02:38:58.954Z,0.00
2018-12-23T02:39:59.008Z,0.00
2018-12-23T02:40:59.062Z,0.00
2018-12-23T02:41:59.123Z,0.00
2018-12-23T02:42:59.168Z,0.00
2018-12-23T02:43:59.217Z,0.00
2018-12-23T02:44:59.271Z,0.00
2018-12-23T02:45:59.323Z,0.00
2018-12-23T02:46:59.375Z,0.00
2018-12-23T02:47:59.427Z,0.00
2018-12-23T02:48:59.487Z,0.00
2018-12-23T02:49:59.534Z,0.00
2018-12-23T02:50:59.585Z,0.00
2018-12-23T02:51:59.639Z,0.00
2018-12-23T02:52:59.690Z,0.00
2018-12-23T02:53:59.741Z,0.00
2018-12-23T02:54:59.801Z,0.00
2018-12-23T02:55:59.850Z,0.00
2018-12-23T02:56:59.900Z,0.00
2018-12-23T02:57:59.953Z,0.00
2018-12-23T02:59:00.004Z,0.00
2018-12-23T03:00:00.057Z,0.00
2018-12-23T03:01:00.110Z,0.00
2018-12-23T03:02:00.170Z,0.00
2018-12-23T03:03:00.214Z,0.00
2018-12-23T03:04:00.267Z,0.00
2018-12-23T03:05:00.321Z,0.00
2018-12-23T03:06:05.704Z,0.00
2018-12-23T03:07:00.427Z,0.00
2018-12-23T03:08:00.478Z,0.00
2018-12-23T03:09:00.529Z,0.00
2018-12-23T03:10:00.582Z,0.00
2018-12-23T03:11:00.636Z,0.00
2018-12-23T03:12:00.688Z,0.00
2018-12-23T03:13:00.741Z,0.00
2018-12-23T03:14:00.792Z,0.00
2018-12-23T03:15:00.844Z,0.00
2018-12-23T03:16:00.896Z,0.00
2018-12-23T03:17:00.949Z,0.00
2018-12-23T03:18:01.004Z,0.00
2018-12-23T03:19:01.055Z,0.00
2018-12-23T03:20:01.107Z,0.00
2018-12-23T03:21:01.159Z,0.00
2018-12-23T03:22:01.212Z,0.00
2018-12-23T03:23:01.265Z,0.00
2018-12-23T03:24:01.317Z,0.00
2018-12-23T03:25:01.376Z,0.00
2018-12-23T03:26:01.422Z,0.00
2018-12-23T03:27:01.475Z,0.00
2018-12-23T03:28:01.527Z,0.00
2018-12-23T03:29:01.662Z,0.00
2018-12-23T03:30:01.631Z,0.00
2018-12-23T03:31:01.686Z,0.00
2018-12-23T03:32:01.739Z,0.00
2018-12-23T03:33:01.802Z,0.00
2018-12-23T03:34:01.844Z,0.00
2018-12-23T03:35:01.895Z,0.00
2018-12-23T03:36:01.947Z,0.00
2018-12-23T03:37:02.001Z,0.00
2018-12-23T03:38:02.054Z,0.00
2018-12-23T03:39:02.104Z,0.00
2018-12-23T03:40:02.158Z,0.00
2018-12-23T03:41:02.211Z,0.00
2018-12-23T03:42:02.263Z,0.00
2018-12-23T03:43:02.315Z,0.00
2018-12-23T03:44:02.369Z,0.00
2018-12-23T03:45:02.424Z,0.00
2018-12-23T03:46:02.475Z,0.00
2018-12-23T03:47:02.528Z,0.00
2018-12-23T03:48:02.580Z,0.00
2018-12-23T03:49:02.632Z,0.00
2018-12-23T03:50:02.685Z,0.00
2018-12-23T03:51:02.743Z,0.00
2018-12-23T03:52:02.792Z,0.00
2018-12-23T03:53:02.843Z,0.00
2018-12-23T03:54:02.893Z,0.00
2018-12-23T03:55:02.946Z,0.00
2018-12-23T03:56:03.003Z,0.00
2018-12-23T03:57:03.052Z,0.00
2018-12-23T03:58:03.103Z,0.00
2018-12-23T03:59:03.156Z,0.00
2018-12-23T04:00:03.208Z,0.00
2018-12-23T04:01:03.269Z,0.00
2018-12-23T04:02:03.314Z,0.00
2018-12-23T04:03:03.367Z,0.00
2018-12-23T04:04:03.422Z,0.00
2018-12-23T04:05:03.483Z,0.00
2018-12-23T04:06:03.526Z,0.00
2018-12-23T04:07:03.579Z,0.00
2018-12-23T04:08:03.635Z,0.00
2018-12-23T04:09:03.684Z,0.00
2018-12-23T04:10:03.736Z,0.00
2018-12-23T04:11:03.791Z,0.00
2018-12-23T04:12:03.843Z,0.00
2018-12-23T04:13:03.897Z,0.00
2018-12-23T04:14:03.948Z,0.00
2018-12-23T04:15:04.001Z,0.00
2018-12-23T04:16:04.052Z,0.00
2018-12-23T04:17:04.107Z,0.00
2018-12-23T04:18:04.158Z,0.00
2018-12-23T04:19:04.277Z,0.00
2018-12-23T04:20:04.265Z,0.00
2018-12-23T04:21:04.319Z,0.00
2018-12-23T04:22:04.374Z,0.00
2018-12-23T04:23:04.425Z,0.00
2018-12-23T04:24:04.478Z,0.00
2018-12-23T04:25:04.530Z,0.00
2018-12-23T04:26:04.582Z,0.00
2018-12-23T04:27:04.635Z,0.00
2018-12-23T04:28:04.687Z,0.00
2018-12-23T04:29:04.742Z,0.00
2018-12-23T04:30:04.794Z,0.00
2018-12-23T04:31:04.847Z,0.00
2018-12-23T04:32:04.899Z,0.00
2018-12-23T04:33:04.954Z,0.00
2018-12-23T04:34:05.006Z,0.00
2018-12-23T04:35:05.059Z,0.00
2018-12-23T04:36:05.112Z,0.00
2018-12-23T04:37:05.165Z,0.00
2018-12-23T04:38:05.218Z,0.00
2018-12-23T04:39:05.273Z,0.00
2018-12-23T04:40:05.324Z,0.00
2018-12-23T04:41:05.378Z,0.00
2018-12-23T04:42:05.454Z,0.00
2018-12-23T04:43:05.482Z,0.00
2018-12-23T04:44:05.537Z,0.00
2018-12-23T04:45:05.591Z,0.00
2018-12-23T04:46:05.641Z,0.00
2018-12-23T04:47:05.697Z,0.00
2018-12-23T04:48:05.755Z,0.00
2018-12-23T04:49:05.804Z,0.00
2018-12-23T04:50:05.855Z,0.00
2018-12-23T04:51:05.907Z,0.00
2018-12-23T04:52:05.964Z,0.00
2018-12-23T04:53:06.017Z,0.00
2018-12-23T04:54:06.069Z,0.00
2018-12-23T04:55:06.121Z,0.00
2018-12-23T04:56:06.174Z,0.00
2018-12-23T04:57:06.228Z,0.00
2018-12-23T04:58:06.281Z,0.00
2018-12-23T04:59:06.334Z,0.00
2018-12-23T05:00:06.387Z,0.00
2018-12-23T05:01:06.439Z,0.00
2018-12-23T05:02:06.500Z,0.00
2018-12-23T05:03:06.547Z,0.00
2018-12-23T05:04:06.600Z,0.00
2018-12-23T05:05:06.653Z,0.00
2018-12-23T05:06:06.705Z,0.00
2018-12-23T05:07:06.760Z,0.00
2018-12-23T05:08:06.812Z,0.00
2018-12-23T05:09:06.866Z,0.00
2018-12-23T05:10:06.918Z,0.00
2018-12-23T05:11:06.971Z,0.00
2018-12-23T05:12:07.036Z,0.00
2018-12-23T05:13:07.079Z,0.00
2018-12-23T05:14:07.132Z,0.00
2018-12-23T05:15:07.184Z,0.00
2018-12-23T05:16:07.239Z,0.00
2018-12-23T05:17:07.296Z,0.00
2018-12-23T05:18:07.343Z,0.00
2018-12-23T05:19:07.398Z,0.00
2018-12-23T05:20:07.453Z,0.00
2018-12-23T05:21:07.506Z,0.00
2018-12-23T05:22:07.558Z,0.00
2018-12-23T05:23:07.612Z,0.00
2018-12-23T05:24:07.664Z,0.00
2018-12-23T05:25:07.718Z,0.00
2018-12-23T05:26:08.328Z,0.00
2018-12-23T05:27:07.824Z,0.00
2018-12-23T05:28:07.877Z,0.00
2018-12-23T05:29:07.931Z,0.00
2018-12-23T05:30:07.984Z,0.00
2018-12-23T05:31:08.042Z,0.00
2018-12-23T05:32:08.091Z,0.00
2018-12-23T05:33:08.144Z,0.00
2018-12-23T05:34:08.199Z,0.00
2018-12-23T05:35:08.271Z,0.00
2018-12-23T05:36:08.304Z,0.00
2018-12-23T05:37:08.357Z,0.00
2018-12-23T05:38:08.411Z,0.00
2018-12-23T05:39:08.464Z,0.00
2018-12-23T05:40:08.518Z,0.00
2018-12-23T05:41:08.571Z,0.00
2018-12-23T05:42:08.627Z,0.00
2018-12-23T05:43:08.753Z,0.00
2018-12-23T05:44:08.730Z,0.00
2018-12-23T05:45:08.784Z,0.00
2018-12-23T05:46:08.837Z,0.00
2018-12-23T05:47:08.890Z,0.00
2018-12-23T05:48:08.943Z,0.00
2018-12-23T05:49:08.997Z,0.00
2018-12-23T05:50:09.049Z,0.00
2018-12-23T05:51:09.208Z,0.00
2018-12-23T05:52:09.158Z,0.00
2018-12-23T05:53:09.209Z,0.00
2018-12-23T05:54:09.261Z,0.00
2018-12-23T05:55:09.317Z,0.00
2018-12-23T05:56:09.368Z,0.00
2018-12-23T05:57:09.423Z,0.00
2018-12-23T05:58:09.474Z,0.00
2018-12-23T05:59:09.529Z,0.00
2018-12-23T06:00:09.585Z,0.00
2018-12-23T06:01:09.636Z,0.00
2018-12-23T06:02:09.689Z,0.00
2018-12-23T06:03:09.744Z,0.00
2018-12-23T06:04:09.796Z,0.00
2018-12-23T06:05:09.848Z,0.00
2018-12-23T06:06:09.902Z,0.00
2018-12-23T06:07:09.956Z,0.00
2018-12-23T06:08:10.008Z,0.00
2018-12-23T06:09:10.063Z,0.00
2018-12-23T06:10:10.117Z,0.00
2018-12-23T06:11:10.171Z,0.00
2018-12-23T06:12:10.222Z,0.00
2018-12-23T06:13:10.317Z,0.00
2018-12-23T06:14:10.330Z,0.00
2018-12-23T06:15:10.381Z,0.00
2018-12-23T06:16:10.437Z,0.00
2018-12-23T06:17:10.490Z,0.00
2018-12-23T06:18:10.542Z,0.00
2018-12-23T06:19:10.596Z,0.00
2018-12-23T06:20:10.648Z,0.00
2018-12-23T06:21:10.702Z,0.00
2018-12-23T06:22:10.756Z,0.00
2018-12-23T06:23:10.811Z,0.00
2018-12-23T06:24:10.862Z,0.00
2018-12-23T06:25:10.917Z,0.00
2018-12-23T06:26:10.968Z,0.00
2018-12-23T06:27:11.021Z,0.00
2018-12-23T06:28:11.075Z,0.00
2018-12-23T06:29:11.129Z,0.00
2018-12-23T06:30:11.182Z,0.00
2018-12-23T06:31:11.236Z,0.00
2018-12-23T06:32:11.290Z,0.00
2018-12-23T06:33:11.342Z,0.00
2018-12-23T06:34:11.397Z,0.00
2018-12-23T06:35:11.450Z,0.00
2018-12-23T06:36:11.504Z,0.00
2018-12-23T06:37:11.556Z,0.00
2018-12-23T06:38:11.610Z,0.00
2018-12-23T06:39:11.663Z,0.00
2018-12-23T06:40:11.717Z,0.00
2018-12-23T06:41:11.769Z,0.00
2018-12-23T06:42:11.823Z,0.00
2018-12-23T06:43:11.876Z,0.00
2018-12-23T06:44:11.930Z,0.00
2018-12-23T06:45:11.985Z,0.00
2018-12-23T06:46:12.042Z,0.00
2018-12-23T06:47:12.092Z,0.00
2018-12-23T06:48:12.145Z,0.00
2018-12-23T06:49:12.199Z,0.00
2018-12-23T06:50:12.253Z,0.00
2018-12-23T06:51:12.306Z,0.00
2018-12-23T06:52:12.360Z,0.00
2018-12-23T06:53:12.413Z,0.00
2018-12-23T06:54:12.467Z,0.00
2018-12-23T06:55:12.521Z,0.00
2018-12-23T06:56:12.573Z,0.00
2018-12-23T06:57:12.628Z,0.00
2018-12-23T06:58:12.680Z,0.00
2018-12-23T06:59:12.735Z,0.00
2018-12-23T07:00:12.790Z,0.00
2018-12-23T07:01:12.844Z,0.00
2018-12-23T07:02:12.905Z,0.00
2018-12-23T07:03:12.950Z,0.00
2018-12-23T07:04:13.004Z,0.00
2018-12-23T07:05:13.065Z,0.00
2018-12-23T07:06:13.110Z,0.00
2018-12-23T07:07:18.657Z,0.00
2018-12-23T07:08:13.219Z,0.00
2018-12-23T07:09:13.273Z,0.00
2018-12-23T07:10:13.326Z,0.00
2018-12-23T07:11:13.382Z,0.00
2018-12-23T07:12:13.442Z,0.00
2018-12-23T07:13:13.487Z,0.00
2018-12-23T07:14:13.541Z,0.00
2018-12-23T07:15:13.594Z,0.00
2018-12-23T07:16:13.653Z,0.00
2018-12-23T07:17:13.702Z,0.00
2018-12-23T07:18:13.756Z,0.00
2018-12-23T07:19:13.809Z,0.00
2018-12-23T07:20:13.864Z,0.00
2018-12-23T07:21:13.917Z,0.00
2018-12-23T07:22:13.970Z,0.00
2018-12-23T07:23:14.026Z,0.00
2018-12-23T07:24:14.079Z,0.00
2018-12-23T07:25:14.154Z,0.00
2018-12-23T07:26:14.185Z,0.00
2018-12-23T07:27:14.791Z,0.00
2018-12-23T07:28:14.296Z,0.00
2018-12-23T07:29:14.349Z,5.63
2018-12-23T07:30:14.402Z,5.63
2018-12-23T07:31:14.455Z,5.63
2018-12-23T07:32:14.510Z,5.63
2018-12-23T07:33:14.567Z,5.63
2018-12-23T07:34:14.617Z,5.63
2018-12-23T07:35:14.670Z,11.25
2018-12-23T07:36:14.725Z,11.25
2018-12-23T07:37:14.779Z,11.25
2018-12-23T07:38:14.833Z,11.25
2018-12-23T07:39:14.887Z,11.25
2018-12-23T07:40:14.941Z,11.25
2018-12-23T07:41:14.994Z,11.25
2018-12-23T07:42:15.051Z,11.25
2018-12-23T07:43:15.101Z,11.25
2018-12-23T07:44:15.157Z,11.25
2018-12-23T07:45:15.210Z,16.88
2018-12-23T07:46:15.263Z,16.88
2018-12-23T07:47:15.316Z,16.88
2018-12-23T07:48:15.370Z,16.88
2018-12-23T07:49:15.440Z,16.88
2018-12-23T07:50:15.479Z,16.88
2018-12-23T07:51:15.533Z,16.88
2018-12-23T07:52:15.591Z,22.50
2018-12-23T07:53:15.640Z,28.13
2018-12-23T07:54:15.696Z,28.13
2018-12-23T07:55:15.748Z,28.13
2018-12-23T07:56:15.816Z,28.13
2018-12-23T07:57:15.858Z,28.13
2018-12-23T07:58:15.913Z,28.13
2018-12-23T07:59:15.964Z,33.75
2018-12-23T08:00:16.034Z,33.75
2018-12-23T08:01:16.073Z,39.38
2018-12-23T08:02:16.128Z,39.38
2018-12-23T08:03:16.179Z,33.75
2018-12-23T08:04:16.235Z,33.75
2018-12-23T08:05:16.288Z,33.75
2018-12-23T08:06:16.343Z,39.38
2018-12-23T08:07:16.398Z,45.00
2018-12-23T08:08:16.449Z,45.00
2018-12-23T08:09:16.505Z,45.00
2018-12-23T08:10:16.558Z,45.00
2018-12-23T08:11:16.612Z,45.00
2018-12-23T08:12:16.668Z,50.63
2018-12-23T08:13:16.721Z,45.00
2018-12-23T08:14:16.774Z,45.00
2018-12-23T08:15:16.827Z,50.63
2018-12-23T08:16:16.881Z,45.00
2018-12-23T08:17:16.937Z,50.63
2018-12-23T08:18:16.990Z,50.63
2018-12-23T08:19:17.045Z,45.00
2018-12-23T08:20:17.098Z,45.00
2018-12-23T08:21:17.154Z,45.00
2018-12-23T08:22:17.206Z,50.63
2018-12-23T08:23:17.260Z,56.25
2018-12-23T08:24:17.313Z,45.00
2018-12-23T08:25:17.369Z,45.00
2018-12-23T08:26:17.424Z,56.25
2018-12-23T08:27:17.480Z,61.88
2018-12-23T08:28:17.532Z,56.25
2018-12-23T08:29:17.586Z,67.50
2018-12-23T08:30:17.641Z,67.50
2018-12-23T08:31:17.692Z,61.88
2018-12-23T08:32:17.747Z,73.13
2018-12-23T08:33:17.803Z,78.75
2018-12-23T08:34:17.857Z,73.13
2018-12-23T08:35:17.913Z,84.38
2018-12-23T08:36:17.975Z,95.63
2018-12-23T08:37:18.018Z,95.63
2018-12-23T08:38:18.079Z,95.63
2018-12-23T08:39:18.128Z,95.63
2018-12-23T08:40:18.182Z,95.63
2018-12-23T08:41:18.238Z,90.00
2018-12-23T08:42:18.289Z,101.25
2018-12-23T08:43:18.346Z,95.63
2018-12-23T08:44:18.398Z,95.63
2018-12-23T08:45:18.454Z,90.00
2018-12-23T08:46:18.508Z,78.75
2018-12-23T08:47:18.562Z,84.38
2018-12-23T08:48:18.617Z,78.75
2018-12-23T08:49:18.672Z,67.50
2018-12-23T08:50:18.726Z,61.88
2018-12-23T08:51:18.780Z,73.13
2018-12-23T08:52:18.835Z,73.13
2018-12-23T08:53:18.890Z,67.50
2018-12-23T08:54:18.943Z,61.88
2018-12-23T08:55:18.998Z,61.88
2018-12-23T08:56:19.054Z,61.88
2018-12-23T08:57:19.107Z,61.88
2018-12-23T08:58:19.162Z,67.50
2018-12-23T08:59:19.217Z,61.88
2018-12-23T09:00:19.271Z,61.88
2018-12-23T09:01:19.327Z,56.25
2018-12-23T09:02:19.379Z,50.63
2018-12-23T09:03:19.438Z,50.63
2018-12-23T09:04:19.488Z,56.25
2018-12-23T09:05:19.544Z,61.88
2018-12-23T09:06:19.598Z,61.88
2018-12-23T09:07:19.654Z,84.38
2018-12-23T09:08:19.709Z,90.00
2018-12-23T09:09:19.763Z,90.00
2018-12-23T09:10:19.817Z,78.75
2018-12-23T09:11:19.872Z,61.88
2018-12-23T09:12:19.927Z,61.88
2018-12-23T09:13:19.982Z,67.50
2018-12-23T09:14:20.035Z,67.50
2018-12-23T09:15:20.089Z,67.50
2018-12-23T09:16:20.146Z,61.88
2018-12-23T09:17:20.587Z,61.88
2018-12-23T09:18:20.263Z,73.13
2018-12-23T09:19:20.308Z,73.13
2018-12-23T09:20:20.364Z,73.13
2018-12-23T09:21:20.418Z,67.50
2018-12-23T09:22:20.475Z,73.13
2018-12-23T09:23:20.530Z,73.13
2018-12-23T09:24:20.581Z,61.88
2018-12-23T09:25:20.638Z,61.88
2018-12-23T09:26:20.692Z,61.88
2018-12-23T09:27:20.748Z,61.88
2018-12-23T09:28:20.800Z,61.88
2018-12-23T09:29:20.857Z,61.88
2018-12-23T09:30:20.912Z,67.50
2018-12-23T09:31:20.965Z,73.13
2018-12-23T09:32:21.019Z,95.63
2018-12-23T09:33:21.083Z,106.88
2018-12-23T09:34:21.130Z,101.25
2018-12-23T09:35:21.185Z,84.38
2018-12-23T09:36:21.239Z,95.63
2018-12-23T09:37:21.296Z,95.63
2018-12-23T09:38:21.350Z,84.38
2018-12-23T09:39:21.403Z,73.13
2018-12-23T09:40:21.458Z,67.50
2018-12-23T09:41:21.514Z,61.88
2018-12-23T09:42:21.568Z,67.50
2018-12-23T09:43:21.629Z,78.75
2018-12-23T09:44:21.677Z,95.63
2018-12-23T09:45:21.734Z,90.00
2018-12-23T09:46:21.788Z,78.75
2018-12-23T09:47:21.843Z,73.13
2018-12-23T09:48:21.901Z,78.75
2018-12-23T09:49:21.953Z,101.25
2018-12-23T09:50:22.007Z,112.50
2018-12-23T09:51:22.062Z,84.38
2018-12-23T09:52:22.117Z,78.75
2018-12-23T09:53:22.172Z,84.38
2018-12-23T09:54:22.227Z,73.13
2018-12-23T09:55:22.281Z,84.38
2018-12-23T09:56:22.356Z,118.13
2018-12-23T09:57:22.392Z,146.25
2018-12-23T09:58:22.445Z,146.25
2018-12-23T09:59:22.500Z,129.38
2018-12-23T10:00:22.556Z,118.13
2018-12-23T10:01:22.611Z,106.88
2018-12-23T10:02:22.735Z,90.00
2018-12-23T10:03:22.721Z,90.00
2018-12-23T10:04:22.775Z,84.38
2018-12-23T10:05:22.831Z,78.75
2018-12-23T10:06:22.885Z,73.13
2018-12-23T10:07:22.941Z,78.75
2018-12-23T10:08:22.997Z,84.38
2018-12-23T10:09:23.051Z,78.75
2018-12-23T10:10:28.302Z,78.75
2018-12-23T10:11:23.161Z,84.38
2018-12-23T10:12:23.216Z,73.13
2018-12-23T10:13:23.272Z,67.50
2018-12-23T10:14:23.325Z,73.13
2018-12-23T10:15:23.383Z,78.75
2018-12-23T10:16:23.437Z,67.50
2018-12-23T10:17:23.491Z,61.88
2018-12-23T10:18:23.545Z,67.50
2018-12-23T10:19:23.600Z,67.50
2018-12-23T10:20:23.656Z,61.88
2018-12-23T10:21:23.712Z,61.88
2018-12-23T10:22:23.767Z,56.25
2018-12-23T10:23:23.822Z,61.88
2018-12-23T10:24:23.877Z,61.88
2018-12-23T10:25:23.931Z,67.50
2018-12-23T10:26:23.986Z,61.88
2018-12-23T10:27:24.044Z,61.88
2018-12-23T10:28:24.110Z,61.88
2018-12-23T10:29:24.152Z,61.88
2018-12-23T10:30:24.204Z,56.25
2018-12-23T10:31:24.263Z,61.88
2018-12-23T10:32:24.316Z,61.88
2018-12-23T10:33:24.372Z,67.50
2018-12-23T10:34:24.430Z,61.88
2018-12-23T10:35:24.485Z,61.88
2018-12-23T10:36:24.542Z,67.50
2018-12-23T10:37:24.592Z,73.13
2018-12-23T10:38:24.646Z,78.75
2018-12-23T10:39:24.709Z,84.38
2018-12-23T10:40:24.756Z,78.75
2018-12-23T10:41:24.813Z,101.25
2018-12-23T10:42:24.869Z,84.38
2018-12-23T10:43:24.922Z,67.50
2018-12-23T10:44:24.978Z,73.13
2018-12-23T10:45:25.031Z,101.25
2018-12-23T10:46:25.086Z,78.75
2018-12-23T10:47:25.145Z,73.13
2018-12-23T10:48:25.197Z,78.75
2018-12-23T10:49:25.362Z,101.25
2018-12-23T10:50:25.306Z,106.88
2018-12-23T10:51:25.362Z,101.25
2018-12-23T10:52:25.417Z,112.50
2018-12-23T10:53:25.471Z,123.75
2018-12-23T10:54:25.529Z,129.38
2018-12-23T10:55:25.581Z,129.38
2018-12-23T10:56:25.637Z,118.13
2018-12-23T10:57:25.692Z,118.13
2018-12-23T10:58:25.746Z,118.13
2018-12-23T10:59:25.817Z,118.13
2018-12-23T11:00:25.857Z,118.13
2018-12-23T11:01:25.911Z,123.75
2018-12-23T11:02:25.967Z,129.38
2018-12-23T11:03:26.021Z,129.38
2018-12-23T11:04:26.077Z,129.38
2018-12-23T11:05:26.132Z,123.75
2018-12-23T11:06:26.185Z,118.13
2018-12-23T11:07:26.242Z,118.13
2018-12-23T11:08:27.078Z,123.75
2018-12-23T11:09:26.351Z,112.50
2018-12-23T11:10:26.406Z,112.50
2018-12-23T11:11:26.465Z,118.13
2018-12-23T11:12:26.517Z,118.13
2018-12-23T11:13:26.570Z,129.38
2018-12-23T11:14:26.625Z,129.38
2018-12-23T11:15:26.680Z,129.38
2018-12-23T11:16:26.739Z,123.75
2018-12-23T11:17:26.792Z,129.38
2018-12-23T11:18:26.845Z,129.38
2018-12-23T11:19:26.901Z,129.38
2018-12-23T11:20:26.956Z,129.38
2018-12-23T11:21:27.011Z,129.38
2018-12-23T11:22:27.065Z,129.38
2018-12-23T11:23:27.120Z,129.38
2018-12-23T11:24:27.175Z,135.00
2018-12-23T11:25:27.231Z,140.63
2018-12-23T11:26:27.285Z,140.63
2018-12-23T11:27:27.340Z,151.88
2018-12-23T11:28:27.396Z,151.88
2018-12-23T11:29:27.450Z,151.88
2018-12-23T11:30:27.506Z,151.88
2018-12-23T11:31:27.561Z,151.88
2018-12-23T11:32:27.621Z,146.25
2018-12-23T11:33:27.669Z,146.25
2018-12-23T11:34:27.725Z,140.63
2018-12-23T11:35:27.780Z,140.63
2018-12-23T11:36:27.835Z,140.63
2018-12-23T11:37:27.894Z,140.63
2018-12-23T11:38:35.236Z,140.63
2018-12-23T11:39:28.000Z,135.00
2018-12-23T11:40:28.056Z,112.50
2018-12-23T11:41:28.110Z,106.88
2018-12-23T11:42:28.164Z,123.75
2018-12-23T11:43:28.219Z,146.25
2018-12-23T11:44:28.274Z,146.25
2018-12-23T11:45:28.331Z,140.63
2018-12-23T11:46:28.384Z,135.00
2018-12-23T11:47:28.439Z,129.38
2018-12-23T11:48:28.495Z,129.38
2018-12-23T11:49:28.550Z,129.38
2018-12-23T11:50:28.604Z,129.38
2018-12-23T11:51:28.660Z,129.38
2018-12-23T11:52:28.719Z,118.13
2018-12-23T11:53:28.770Z,101.25
2018-12-23T11:54:28.825Z,101.25
2018-12-23T11:55:28.880Z,106.88
2018-12-23T11:56:28.934Z,112.50
2018-12-23T11:57:28.990Z,101.25
2018-12-23T11:58:29.045Z,90.00
2018-12-23T11:59:29.116Z,84.38
2018-12-23T12:00:29.155Z,95.63
2018-12-23T12:01:29.211Z,95.63
2018-12-23T12:02:29.267Z,118.13
2018-12-23T12:03:29.320Z,123.75
2018-12-23T12:04:29.377Z,129.38
2018-12-23T12:05:29.431Z,146.25
2018-12-23T12:06:29.486Z,151.88
2018-12-23T12:07:29.541Z,146.25
2018-12-23T12:08:29.596Z,146.25
2018-12-23T12:09:29.651Z,146.25
2018-12-23T12:10:29.706Z,135.00
2018-12-23T12:11:29.764Z,129.38
2018-12-23T12:12:29.861Z,129.38
2018-12-23T12:13:29.873Z,135.00
2018-12-23T12:14:29.926Z,140.63
2018-12-23T12:15:29.982Z,140.63
2018-12-23T12:16:30.036Z,140.63
2018-12-23T12:17:30.092Z,140.63
2018-12-23T12:18:30.146Z,140.63
2018-12-23T12:19:30.206Z,146.25
2018-12-23T12:20:30.258Z,140.63
2018-12-23T12:21:30.312Z,140.63
2018-12-23T12:22:30.368Z,140.63
2018-12-23T12:23:30.421Z,146.25
2018-12-23T12:24:30.477Z,146.25
2018-12-23T12:25:30.534Z,140.63
2018-12-23T12:26:30.592Z,135.00
2018-12-23T12:27:30.645Z,135.00
2018-12-23T12:28:30.697Z,140.63
2018-12-23T12:29:30.753Z,135.00
2018-12-23T12:30:30.808Z,140.63
2018-12-23T12:31:30.862Z,151.88
2018-12-23T12:32:30.919Z,151.88
2018-12-23T12:33:30.974Z,151.88
2018-12-23T12:34:31.034Z,157.50
2018-12-23T12:35:31.083Z,163.13
2018-12-23T12:36:31.141Z,168.75
2018-12-23T12:37:31.194Z,168.75
2018-12-23T12:38:31.248Z,168.75
2018-12-23T12:39:31.305Z,168.75
2018-12-23T12:40:31.359Z,168.75
2018-12-23T12:41:31.416Z,163.13
2018-12-23T12:42:31.780Z,163.13
2018-12-23T12:43:31.526Z,157.50
2018-12-23T12:44:31.582Z,157.50
2018-12-23T12:45:31.647Z,151.88
2018-12-23T12:46:31.690Z,151.88
2018-12-23T12:47:31.746Z,157.50
2018-12-23T12:48:31.801Z,146.25
2018-12-23T12:49:31.858Z,151.88
2018-12-23T12:50:31.913Z,140.63
2018-12-23T12:51:31.968Z,146.25
2018-12-23T12:52:32.024Z,146.25
2018-12-23T12:53:32.079Z,146.25
2018-12-23T12:54:32.135Z,146.25
2018-12-23T12:55:32.189Z,151.88
2018-12-23T12:56:32.245Z,151.88
2018-12-23T12:57:32.305Z,157.50
2018-12-23T12:58:32.354Z,163.13
2018-12-23T12:59:32.409Z,163.13
2018-12-23T13:00:32.464Z,157.50
2018-12-23T13:01:32.522Z,146.25
2018-12-23T13:02:32.580Z,129.38
2018-12-23T13:03:32.631Z,101.25